sensor_id;sensor_type;location;lat;lon;timestamp;pressure;altitude;pressure_sealevel;temperature;humidity
59729;BME280;45588;51.598;5.618;2022-10-13T00:01:12;101825.69;;;9.53;100.00
59729;BME280;45588;51.598;5.618;2022-10-13T00:03:39;101819.59;;;9.53;100.00
59729;BME280;45588;51.598;5.618;2022-10-13T00:06:08;101822.19;;;9.53;100.00
59729;BME280;45588;51.598;5.618;2022-10-13T00:08:35;101820.59;;;9.57;100.00
59729;BME280;45588;51.598;5.618;2022-10-13T00:11:07;101812.75;;;9.55;100.00
59729;BME280;45588;51.598;5.618;2022-10-13T00:13:33;101821.47;;;9.57;100.00
59729;BME280;45588;51.598;5.618;2022-10-13T00:16:01;101823.53;;;9.64;100.00
59729;BME280;45588;51.598;5.618;2022-10-13T00:18:26;101813.19;;;9.66;100.00
59729;BME280;45588;51.598;5.618;2022-10-13T00:20:51;101794.13;;;9.65;100.00
59729;BME280;45588;51.598;5.618;2022-10-13T00:23:17;101804.84;;;9.73;100.00
59729;BME280;45588;51.598;5.618;2022-10-13T00:25:44;101802.91;;;9.69;100.00
59729;BME280;45588;51.598;5.618;2022-10-13T00:28:11;101798.72;;;9.72;100.00
59729;BME280;45588;51.598;5.618;2022-10-13T00:30:37;101797.16;;;9.76;100.00
59729;BME280;45588;51.598;5.618;2022-10-13T00:33:03;101797.06;;;9.74;100.00
59729;BME280;45588;51.598;5.618;2022-10-13T00:35:28;101787.63;;;9.77;100.00
59729;BME280;45588;51.598;5.618;2022-10-13T00:37:53;101794.66;;;9.79;100.00
59729;BME280;45588;51.598;5.618;2022-10-13T00:40:19;101793.16;;;9.84;100.00
59729;BME280;45588;51.598;5.618;2022-10-13T00:42:44;101798.53;;;9.89;100.00
59729;BME280;45588;51.598;5.618;2022-10-13T00:45:24;101796.03;;;9.90;100.00
59729;BME280;45588;51.598;5.618;2022-10-13T00:47:55;101800.31;;;9.90;100.00
59729;BME280;45588;51.598;5.618;2022-10-13T00:50:25;101790.66;;;9.87;100.00
59729;BME280;45588;51.598;5.618;2022-10-13T00:52:53;101796.91;;;9.91;100.00
59729;BME280;45588;51.598;5.618;2022-10-13T00:55:21;101799.44;;;9.89;100.00
59729;BME280;45588;51.598;5.618;2022-10-13T00:57:49;101797.69;;;9.90;100.00
59729;BME280;45588;51.598;5.618;2022-10-13T01:00:20;101793.22;;;9.86;100.00
59729;BME280;45588;51.598;5.618;2022-10-13T01:02:46;101793.47;;;9.92;100.00
59729;BME280;45588;51.598;5.618;2022-10-13T01:05:11;101786.50;;;9.91;100.00
59729;BME280;45588;51.598;5.618;2022-10-13T01:07:37;101790.75;;;9.89;100.00
59729;BME280;45588;51.598;5.618;2022-10-13T01:10:02;101797.13;;;9.97;100.00
59729;BME280;45588;51.598;5.618;2022-10-13T01:12:49;101789.41;;;9.99;100.00
59729;BME280;45588;51.598;5.618;2022-10-13T01:15:21;101792.78;;;9.96;100.00
59729;BME280;45588;51.598;5.618;2022-10-13T01:18:07;101786.81;;;9.99;100.00
59729;BME280;45588;51.598;5.618;2022-10-13T01:34:39;101788.38;;;10.16;100.00
59729;BME280;45588;51.598;5.618;2022-10-13T01:39:52;101783.41;;;10.22;100.00
59729;BME280;45588;51.598;5.618;2022-10-13T01:42:23;101778.19;;;10.22;100.00
59729;BME280;45588;51.598;5.618;2022-10-13T01:44:54;101774.97;;;10.28;100.00
59729;BME280;45588;51.598;5.618;2022-10-13T01:47:24;101782.91;;;10.31;100.00
59729;BME280;45588;51.598;5.618;2022-10-13T01:49:52;101775.25;;;10.35;100.00
59729;BME280;45588;51.598;5.618;2022-10-13T01:52:20;101773.56;;;10.36;100.00
59729;BME280;45588;51.598;5.618;2022-10-13T01:54:49;101764.84;;;10.35;100.00
59729;BME280;45588;51.598;5.618;2022-10-13T01:57:42;101757.69;;;10.30;100.00
59729;BME280;45588;51.598;5.618;2022-10-13T02:00:12;101756.81;;;10.29;100.00
59729;BME280;45588;51.598;5.618;2022-10-13T02:02:52;101764.22;;;10.41;100.00
59729;BME280;45588;51.598;5.618;2022-10-13T02:05:37;101765.09;;;10.42;100.00
59729;BME280;45588;51.598;5.618;2022-10-13T02:08:20;101752.84;;;10.39;100.00
59729;BME280;45588;51.598;5.618;2022-10-13T02:11:11;101749.41;;;10.40;100.00
59729;BME280;45588;51.598;5.618;2022-10-13T02:13:42;101750.13;;;10.36;100.00
59729;BME280;45588;51.598;5.618;2022-10-13T02:16:10;101750.34;;;10.42;100.00
59729;BME280;45588;51.598;5.618;2022-10-13T02:18:36;101752.09;;;10.42;100.00
59729;BME280;45588;51.598;5.618;2022-10-13T02:21:02;101747.75;;;10.42;100.00
59729;BME280;45588;51.598;5.618;2022-10-13T02:23:28;101737.22;;;10.39;100.00
59729;BME280;45588;51.598;5.618;2022-10-13T02:25:55;101738.22;;;10.43;100.00
59729;BME280;45588;51.598;5.618;2022-10-13T02:28:21;101739.09;;;10.43;100.00
59729;BME280;45588;51.598;5.618;2022-10-13T02:30:46;101731.44;;;10.46;100.00
59729;BME280;45588;51.598;5.618;2022-10-13T02:33:12;101732.50;;;10.51;100.00
59729;BME280;45588;51.598;5.618;2022-10-13T02:35:38;101728.69;;;10.43;100.00
59729;BME280;45588;51.598;5.618;2022-10-13T02:38:04;101737.63;;;10.50;100.00
59729;BME280;45588;51.598;5.618;2022-10-13T02:40:30;101726.03;;;10.42;100.00
59729;BME280;45588;51.598;5.618;2022-10-13T02:42:55;101725.09;;;10.39;100.00
59729;BME280;45588;51.598;5.618;2022-10-13T02:45:21;101731.34;;;10.45;100.00
59729;BME280;45588;51.598;5.618;2022-10-13T02:47:47;101724.09;;;10.36;100.00
59729;BME280;45588;51.598;5.618;2022-10-13T02:50:12;101723.25;;;10.37;100.00
59729;BME280;45588;51.598;5.618;2022-10-13T02:52:37;101727.69;;;10.39;100.00
59729;BME280;45588;51.598;5.618;2022-10-13T02:55:04;101722.41;;;10.38;100.00
59729;BME280;45588;51.598;5.618;2022-10-13T02:57:29;101716.28;;;10.36;100.00
59729;BME280;45588;51.598;5.618;2022-10-13T02:59:54;101718.16;;;10.40;100.00
59729;BME280;45588;51.598;5.618;2022-10-13T03:02:20;101720.84;;;10.42;100.00
59729;BME280;45588;51.598;5.618;2022-10-13T03:04:46;101717.50;;;10.46;100.00
59729;BME280;45588;51.598;5.618;2022-10-13T03:07:12;101705.88;;;10.36;100.00
59729;BME280;45588;51.598;5.618;2022-10-13T03:09:37;101705.31;;;10.45;100.00
59729;BME280;45588;51.598;5.618;2022-10-13T03:12:03;101714.97;;;10.47;100.00
59729;BME280;45588;51.598;5.618;2022-10-13T03:14:28;101700.03;;;10.43;100.00
59729;BME280;45588;51.598;5.618;2022-10-13T03:16:53;101705.38;;;10.46;100.00
59729;BME280;45588;51.598;5.618;2022-10-13T03:19:19;101708.16;;;10.51;100.00
59729;BME280;45588;51.598;5.618;2022-10-13T03:21:44;101693.19;;;10.45;100.00
59729;BME280;45588;51.598;5.618;2022-10-13T03:24:09;101699.34;;;10.47;100.00
59729;BME280;45588;51.598;5.618;2022-10-13T03:26:35;101698.44;;;10.47;100.00
59729;BME280;45588;51.598;5.618;2022-10-13T03:29:00;101704.66;;;10.50;100.00
59729;BME280;45588;51.598;5.618;2022-10-13T03:31:26;101701.13;;;10.48;100.00
59729;BME280;45588;51.598;5.618;2022-10-13T03:33:51;101694.78;;;10.42;100.00
59729;BME280;45588;51.598;5.618;2022-10-13T03:36:17;101692.38;;;10.46;100.00
59729;BME280;45588;51.598;5.618;2022-10-13T03:38:42;101694.72;;;10.40;100.00
59729;BME280;45588;51.598;5.618;2022-10-13T03:41:10;101697.28;;;10.38;100.00
59729;BME280;45588;51.598;5.618;2022-10-13T03:43:36;101691.34;;;10.43;100.00
59729;BME280;45588;51.598;5.618;2022-10-13T03:46:04;101680.75;;;10.38;100.00
59729;BME280;45588;51.598;5.618;2022-10-13T03:48:30;101691.25;;;10.39;100.00
59729;BME280;45588;51.598;5.618;2022-10-13T03:50:56;101681.59;;;10.37;100.00
59729;BME280;45588;51.598;5.618;2022-10-13T03:53:22;101685.03;;;10.36;100.00
59729;BME280;45588;51.598;5.618;2022-10-13T03:55:52;101690.53;;;10.44;100.00
59729;BME280;45588;51.598;5.618;2022-10-13T03:58:18;101686.22;;;10.44;100.00
59729;BME280;45588;51.598;5.618;2022-10-13T04:00:44;101682.53;;;10.39;100.00
59729;BME280;45588;51.598;5.618;2022-10-13T04:03:10;101676.47;;;10.38;100.00
59729;BME280;45588;51.598;5.618;2022-10-13T04:05:36;101670.59;;;10.44;100.00
59729;BME280;45588;51.598;5.618;2022-10-13T04:08:01;101674.25;;;10.49;100.00
59729;BME280;45588;51.598;5.618;2022-10-13T04:10:27;101666.50;;;10.51;100.00
59729;BME280;45588;51.598;5.618;2022-10-13T04:12:52;101667.19;;;10.47;100.00
59729;BME280;45588;51.598;5.618;2022-10-13T04:15:17;101661.22;;;10.49;100.00
59729;BME280;45588;51.598;5.618;2022-10-13T04:17:42;101664.88;;;10.54;100.00
59729;BME280;45588;51.598;5.618;2022-10-13T04:20:08;101661.50;;;10.57;100.00
59729;BME280;45588;51.598;5.618;2022-10-13T04:22:33;101669.47;;;10.61;100.00
59729;BME280;45588;51.598;5.618;2022-10-13T04:24:59;101666.09;;;10.64;100.00
59729;BME280;45588;51.598;5.618;2022-10-13T04:27:24;101659.22;;;10.66;100.00
59729;BME280;45588;51.598;5.618;2022-10-13T04:29:50;101651.28;;;10.63;100.00
59729;BME280;45588;51.598;5.618;2022-10-13T04:32:16;101654.16;;;10.71;100.00
59729;BME280;45588;51.598;5.618;2022-10-13T04:34:41;101655.09;;;10.73;100.00
59729;BME280;45588;51.598;5.618;2022-10-13T04:37:06;101656.91;;;10.74;100.00
59729;BME280;45588;51.598;5.618;2022-10-13T04:39:32;101647.97;;;10.67;100.00
59729;BME280;45588;51.598;5.618;2022-10-13T04:41:57;101651.41;;;10.66;100.00
59729;BME280;45588;51.598;5.618;2022-10-13T04:44:23;101651.63;;;10.72;100.00
59729;BME280;45588;51.598;5.618;2022-10-13T04:46:48;101648.84;;;10.68;100.00
59729;BME280;45588;51.598;5.618;2022-10-13T04:49:15;101644.47;;;10.67;100.00
59729;BME280;45588;51.598;5.618;2022-10-13T04:51:40;101642.16;;;10.74;100.00
59729;BME280;45588;51.598;5.618;2022-10-13T04:54:05;101648.16;;;10.73;100.00
59729;BME280;45588;51.598;5.618;2022-10-13T04:56:31;101647.19;;;10.70;100.00
59729;BME280;45588;51.598;5.618;2022-10-13T04:58:57;101649.78;;;10.70;100.00
59729;BME280;45588;51.598;5.618;2022-10-13T05:01:23;101636.88;;;10.73;100.00
59729;BME280;45588;51.598;5.618;2022-10-13T05:03:54;101631.22;;;10.60;100.00
59729;BME280;45588;51.598;5.618;2022-10-13T05:06:23;101634.06;;;10.67;100.00
59729;BME280;45588;51.598;5.618;2022-10-13T05:08:49;101648.66;;;10.61;100.00
59729;BME280;45588;51.598;5.618;2022-10-13T05:11:15;101644.38;;;10.64;100.00
59729;BME280;45588;51.598;5.618;2022-10-13T05:13:41;101651.25;;;10.61;100.00
59729;BME280;45588;51.598;5.618;2022-10-13T05:16:10;101637.88;;;10.52;100.00
59729;BME280;45588;51.598;5.618;2022-10-13T05:18:37;101627.56;;;10.55;100.00
59729;BME280;45588;51.598;5.618;2022-10-13T05:21:14;101631.97;;;10.56;100.00
59729;BME280;45588;51.598;5.618;2022-10-13T05:23:39;101624.66;;;10.46;100.00
59729;BME280;45588;51.598;5.618;2022-10-13T05:26:14;101635.88;;;10.45;100.00
59729;BME280;45588;51.598;5.618;2022-10-13T05:28:39;101628.13;;;10.47;100.00
59729;BME280;45588;51.598;5.618;2022-10-13T05:33:38;101642.91;;;10.48;100.00
59729;BME280;45588;51.598;5.618;2022-10-13T05:36:08;101659.38;;;10.47;100.00
59729;BME280;45588;51.598;5.618;2022-10-13T05:38:34;101644.75;;;10.50;100.00
59729;BME280;45588;51.598;5.618;2022-10-13T05:41:06;101650.03;;;10.52;100.00
59729;BME280;45588;51.598;5.618;2022-10-13T05:43:32;101655.31;;;10.53;100.00
59729;BME280;45588;51.598;5.618;2022-10-13T05:45:58;101649.78;;;10.46;100.00
59729;BME280;45588;51.598;5.618;2022-10-13T05:48:24;101652.63;;;10.52;100.00
59729;BME280;45588;51.598;5.618;2022-10-13T05:50:50;101656.19;;;10.54;100.00
59729;BME280;45588;51.598;5.618;2022-10-13T05:53:16;101653.50;;;10.52;100.00
59729;BME280;45588;51.598;5.618;2022-10-13T05:55:42;101646.56;;;10.53;100.00
59729;BME280;45588;51.598;5.618;2022-10-13T05:58:08;101641.44;;;10.54;100.00
59729;BME280;45588;51.598;5.618;2022-10-13T06:00:33;101627.03;;;10.40;100.00
59729;BME280;45588;51.598;5.618;2022-10-13T06:03:09;101635.88;;;10.45;100.00
59729;BME280;45588;51.598;5.618;2022-10-13T06:05:35;101640.47;;;10.51;100.00
59729;BME280;45588;51.598;5.618;2022-10-13T06:08:01;101643.16;;;10.54;100.00
59729;BME280;45588;51.598;5.618;2022-10-13T06:10:27;101630.81;;;10.48;100.00
59729;BME280;45588;51.598;5.618;2022-10-13T06:12:52;101644.72;;;10.49;100.00
59729;BME280;45588;51.598;5.618;2022-10-13T06:15:17;101644.09;;;10.56;100.00
59729;BME280;45588;51.598;5.618;2022-10-13T06:17:42;101635.28;;;10.52;100.00
59729;BME280;45588;51.598;5.618;2022-10-13T06:20:08;101637.34;;;10.61;100.00
59729;BME280;45588;51.598;5.618;2022-10-13T06:22:34;101632.28;;;10.66;100.00
59729;BME280;45588;51.598;5.618;2022-10-13T06:25:01;101625.19;;;10.61;100.00
59729;BME280;45588;51.598;5.618;2022-10-13T06:27:26;101620.03;;;10.63;100.00
59729;BME280;45588;51.598;5.618;2022-10-13T06:29:52;101623.84;;;10.73;100.00
59729;BME280;45588;51.598;5.618;2022-10-13T06:32:17;101616.00;;;10.71;100.00
59729;BME280;45588;51.598;5.618;2022-10-13T06:34:42;101618.09;;;10.81;100.00
59729;BME280;45588;51.598;5.618;2022-10-13T06:37:08;101611.75;;;10.75;100.00
59729;BME280;45588;51.598;5.618;2022-10-13T06:39:34;101620.69;;;10.81;100.00
59729;BME280;45588;51.598;5.618;2022-10-13T06:41:59;101611.22;;;10.83;100.00
59729;BME280;45588;51.598;5.618;2022-10-13T06:44:24;101604.53;;;10.92;100.00
59729;BME280;45588;51.598;5.618;2022-10-13T06:46:50;101618.50;;;10.94;100.00
59729;BME280;45588;51.598;5.618;2022-10-13T06:49:15;101623.84;;;10.98;100.00
59729;BME280;45588;51.598;5.618;2022-10-13T06:51:40;101624.22;;;11.09;100.00
59729;BME280;45588;51.598;5.618;2022-10-13T06:54:06;101625.19;;;11.13;100.00
59729;BME280;45588;51.598;5.618;2022-10-13T06:56:31;101623.31;;;11.09;100.00
59729;BME280;45588;51.598;5.618;2022-10-13T06:58:56;101617.19;;;11.07;100.00
59729;BME280;45588;51.598;5.618;2022-10-13T07:01:21;101614.72;;;11.11;100.00
59729;BME280;45588;51.598;5.618;2022-10-13T07:03:48;101613.38;;;11.22;100.00
59729;BME280;45588;51.598;5.618;2022-10-13T07:06:14;101616.94;;;11.26;100.00
59729;BME280;45588;51.598;5.618;2022-10-13T07:08:39;101622.94;;;11.23;100.00
59729;BME280;45588;51.598;5.618;2022-10-13T07:11:06;101623.88;;;11.25;100.00
59729;BME280;45588;51.598;5.618;2022-10-13T07:13:32;101615.59;;;11.37;100.00
59729;BME280;45588;51.598;5.618;2022-10-13T07:15:57;101614.66;;;11.35;100.00
59729;BME280;45588;51.598;5.618;2022-10-13T07:18:23;101612.13;;;11.38;100.00
59729;BME280;45588;51.598;5.618;2022-10-13T07:20:48;101616.53;;;11.39;100.00
59729;BME280;45588;51.598;5.618;2022-10-13T07:23:13;101618.50;;;11.46;100.00
59729;BME280;45588;51.598;5.618;2022-10-13T07:25:38;101616.13;;;11.54;100.00
59729;BME280;45588;51.598;5.618;2022-10-13T07:28:04;101623.84;;;11.51;100.00
59729;BME280;45588;51.598;5.618;2022-10-13T07:30:29;101629.41;;;11.62;100.00
59729;BME280;45588;51.598;5.618;2022-10-13T07:32:54;101622.16;;;11.53;100.00
59729;BME280;45588;51.598;5.618;2022-10-13T07:35:20;101622.16;;;11.53;100.00
59729;BME280;45588;51.598;5.618;2022-10-13T07:37:46;101625.78;;;11.57;100.00
59729;BME280;45588;51.598;5.618;2022-10-13T07:40:11;101630.28;;;11.62;100.00
59729;BME280;45588;51.598;5.618;2022-10-13T07:42:36;101621.66;;;11.65;100.00
59729;BME280;45588;51.598;5.618;2022-10-13T07:45:02;101611.50;;;11.74;100.00
59729;BME280;45588;51.598;5.618;2022-10-13T07:47:28;101621.06;;;11.74;100.00
59729;BME280;45588;51.598;5.618;2022-10-13T07:49:53;101610.59;;;11.72;100.00
59729;BME280;45588;51.598;5.618;2022-10-13T07:52:20;101617.00;;;11.83;100.00
59729;BME280;45588;51.598;5.618;2022-10-13T07:54:45;101626.25;;;12.01;100.00
59729;BME280;45588;51.598;5.618;2022-10-13T07:57:10;101633.94;;;11.95;100.00
59729;BME280;45588;51.598;5.618;2022-10-13T07:59:36;101619.06;;;11.92;100.00
59729;BME280;45588;51.598;5.618;2022-10-13T08:02:01;101634.09;;;12.01;100.00
59729;BME280;45588;51.598;5.618;2022-10-13T08:04:31;101623.88;;;12.08;100.00
59729;BME280;45588;51.598;5.618;2022-10-13T08:06:57;101621.50;;;12.16;100.00
59729;BME280;45588;51.598;5.618;2022-10-13T08:09:23;101624.06;;;12.15;100.00
59729;BME280;45588;51.598;5.618;2022-10-13T08:11:49;101613.56;;;12.13;100.00
59729;BME280;45588;51.598;5.618;2022-10-13T08:14:14;101615.78;;;12.29;100.00
59729;BME280;45588;51.598;5.618;2022-10-13T08:16:39;101617.19;;;12.48;100.00
59729;BME280;45588;51.598;5.618;2022-10-13T08:19:08;101611.16;;;12.51;100.00
59729;BME280;45588;51.598;5.618;2022-10-13T08:21:33;101615.78;;;12.61;100.00
59729;BME280;45588;51.598;5.618;2022-10-13T08:23:58;101611.81;;;12.75;100.00
59729;BME280;45588;51.598;5.618;2022-10-13T08:26:27;101612.03;;;12.83;100.00
59729;BME280;45588;51.598;5.618;2022-10-13T08:28:53;101609.06;;;13.04;100.00
59729;BME280;45588;51.598;5.618;2022-10-13T08:31:19;101609.13;;;13.07;100.00
59729;BME280;45588;51.598;5.618;2022-10-13T08:33:45;101613.75;;;13.17;100.00
59729;BME280;45588;51.598;5.618;2022-10-13T08:36:12;101610.31;;;13.20;100.00
59729;BME280;45588;51.598;5.618;2022-10-13T08:38:39;101611.25;;;13.22;100.00
59729;BME280;45588;51.598;5.618;2022-10-13T08:41:13;101601.00;;;13.28;100.00
59729;BME280;45588;51.598;5.618;2022-10-13T08:43:39;101601.81;;;13.27;100.00
59729;BME280;45588;51.598;5.618;2022-10-13T08:46:05;101605.47;;;13.34;100.00
59729;BME280;45588;51.598;5.618;2022-10-13T08:48:32;101602.09;;;13.39;100.00
59729;BME280;45588;51.598;5.618;2022-10-13T08:51:02;101598.84;;;13.50;100.00
59729;BME280;45588;51.598;5.618;2022-10-13T08:53:38;101592.00;;;13.55;100.00
59729;BME280;45588;51.598;5.618;2022-10-13T08:56:24;101598.31;;;13.64;100.00
59729;BME280;45588;51.598;5.618;2022-10-13T08:58:51;101598.31;;;13.64;100.00
59729;BME280;45588;51.598;5.618;2022-10-13T09:01:27;101598.53;;;13.74;100.00
59729;BME280;45588;51.598;5.618;2022-10-13T09:06:23;101595.97;;;13.77;100.00
59729;BME280;45588;51.598;5.618;2022-10-13T09:09:01;101603.91;;;13.80;100.00
59729;BME280;45588;51.598;5.618;2022-10-13T09:11:32;101589.88;;;13.78;100.00
59729;BME280;45588;51.598;5.618;2022-10-13T09:14:00;101593.50;;;13.83;100.00
59729;BME280;45588;51.598;5.618;2022-10-13T09:16:49;101590.84;;;13.81;100.00
59729;BME280;45588;51.598;5.618;2022-10-13T09:21:41;101583.22;;;13.92;100.00
59729;BME280;45588;51.598;5.618;2022-10-13T09:24:13;101583.00;;;13.83;100.00
59729;BME280;45588;51.598;5.618;2022-10-13T09:26:39;101582.13;;;13.82;100.00
59729;BME280;45588;51.598;5.618;2022-10-13T09:29:15;101589.16;;;13.83;100.00
59729;BME280;45588;51.598;5.618;2022-10-13T09:31:41;101589.19;;;13.85;100.00
59729;BME280;45588;51.598;5.618;2022-10-13T09:36:58;101583.88;;;13.82;100.00
59729;BME280;45588;51.598;5.618;2022-10-13T09:39:25;101582.44;;;13.96;100.00
59729;BME280;45588;51.598;5.618;2022-10-13T09:41:51;101582.91;;;13.77;100.00
59729;BME280;45588;51.598;5.618;2022-10-13T09:44:27;101576.75;;;13.75;100.00
59729;BME280;45588;51.598;5.618;2022-10-13T09:46:57;101581.94;;;13.73;100.00
59729;BME280;45588;51.598;5.618;2022-10-13T09:54:48;101569.66;;;13.71;100.00
59729;BME280;45588;51.598;5.618;2022-10-13T09:57:16;101584.75;;;13.81;100.00
59729;BME280;45588;51.598;5.618;2022-10-13T09:59:49;101577.63;;;13.75;100.00
59729;BME280;45588;51.598;5.618;2022-10-13T10:02:25;101576.88;;;13.81;100.00
59729;BME280;45588;51.598;5.618;2022-10-13T10:04:52;101573.28;;;13.76;100.00
59729;BME280;45588;51.598;5.618;2022-10-13T10:07:25;101578.53;;;13.76;100.00
59729;BME280;45588;51.598;5.618;2022-10-13T10:09:59;101575.75;;;13.70;100.00
59729;BME280;45588;51.598;5.618;2022-10-13T10:12:29;101581.88;;;13.70;100.00
59729;BME280;45588;51.598;5.618;2022-10-13T10:14:55;101577.34;;;13.63;100.00
59729;BME280;45588;51.598;5.618;2022-10-13T10:17:38;101588.59;;;13.59;100.00
59729;BME280;45588;51.598;5.618;2022-10-13T10:20:12;101580.72;;;13.57;100.00
59729;BME280;45588;51.598;5.618;2022-10-13T10:22:51;101578.84;;;13.52;100.00
59729;BME280;45588;51.598;5.618;2022-10-13T10:25:46;101571.94;;;13.55;100.00
59729;BME280;45588;51.598;5.618;2022-10-13T10:31:15;101569.25;;;13.52;100.00
59729;BME280;45588;51.598;5.618;2022-10-13T10:33:50;101569.25;;;13.51;100.00
59729;BME280;45588;51.598;5.618;2022-10-13T10:39:17;101568.44;;;13.55;100.00
59729;BME280;45588;51.598;5.618;2022-10-13T10:42:02;101560.41;;;13.46;100.00
59729;BME280;45588;51.598;5.618;2022-10-13T10:44:38;101573.38;;;13.42;100.00
59729;BME280;45588;51.598;5.618;2022-10-13T10:47:10;101575.81;;;13.33;100.00
59729;BME280;45588;51.598;5.618;2022-10-13T10:49:38;101560.78;;;13.26;100.00
59729;BME280;45588;51.598;5.618;2022-10-13T10:52:09;101558.75;;;13.14;100.00
59729;BME280;45588;51.598;5.618;2022-10-13T10:57:20;101562.22;;;13.13;100.00
59729;BME280;45588;51.598;5.618;2022-10-13T11:00:05;101552.72;;;13.17;100.00
59729;BME280;45588;51.598;5.618;2022-10-13T11:03:15;101549.22;;;13.16;100.00
59729;BME280;45588;51.598;5.618;2022-10-13T11:06:00;101551.91;;;13.19;100.00
59729;BME280;45588;51.598;5.618;2022-10-13T11:14:22;101547.72;;;13.26;100.00
59729;BME280;45588;51.598;5.618;2022-10-13T11:17:07;101548.75;;;13.33;100.00
59729;BME280;45588;51.598;5.618;2022-10-13T11:19:38;101542.81;;;13.40;100.00
59729;BME280;45588;51.598;5.618;2022-10-13T11:24:42;101542.97;;;13.46;100.00
59729;BME280;45588;51.598;5.618;2022-10-13T11:37:29;101518.06;;;13.63;100.00
59729;BME280;45588;51.598;5.618;2022-10-13T11:50:41;101517.84;;;13.54;100.00
59729;BME280;45588;51.598;5.618;2022-10-13T11:53:20;101519.41;;;13.46;100.00
59729;BME280;45588;51.598;5.618;2022-10-13T11:58:19;101508.94;;;13.46;100.00
59729;BME280;45588;51.598;5.618;2022-10-13T12:01:10;101509.00;;;13.49;100.00
59729;BME280;45588;51.598;5.618;2022-10-13T12:03:44;101506.44;;;13.51;100.00
59729;BME280;45588;51.598;5.618;2022-10-13T12:08:47;101503.66;;;13.43;100.00
59729;BME280;45588;51.598;5.618;2022-10-13T12:11:25;101499.31;;;13.45;100.00
59729;BME280;45588;51.598;5.618;2022-10-13T12:13:51;101492.16;;;13.36;100.00
59729;BME280;45588;51.598;5.618;2022-10-13T12:16:17;101475.38;;;13.27;100.00
59729;BME280;45588;51.598;5.618;2022-10-13T12:18:42;101478.81;;;13.26;100.00
59729;BME280;45588;51.598;5.618;2022-10-13T12:21:19;101480.47;;;13.22;100.00
59729;BME280;45588;51.598;5.618;2022-10-13T12:23:46;101486.56;;;13.23;100.00
59729;BME280;45588;51.598;5.618;2022-10-13T12:26:20;101488.34;;;13.24;100.00
59729;BME280;45588;51.598;5.618;2022-10-13T12:28:57;101489.19;;;13.21;100.00
59729;BME280;45588;51.598;5.618;2022-10-13T12:31:29;101489.06;;;13.16;100.00
59729;BME280;45588;51.598;5.618;2022-10-13T12:34:01;101483.91;;;13.19;100.00
59729;BME280;45588;51.598;5.618;2022-10-13T12:36:27;101481.44;;;13.26;100.00
59729;BME280;45588;51.598;5.618;2022-10-13T12:38:58;101485.06;;;13.31;100.00
59729;BME280;45588;51.598;5.618;2022-10-13T12:41:29;101479.31;;;13.47;100.00
59729;BME280;45588;51.598;5.618;2022-10-13T12:43:56;101476.53;;;13.39;100.00
59729;BME280;45588;51.598;5.618;2022-10-13T12:49:15;101479.25;;;13.44;100.00
59729;BME280;45588;51.598;5.618;2022-10-13T12:51:42;101467.97;;;13.47;100.00
59729;BME280;45588;51.598;5.618;2022-10-13T12:54:17;101479.31;;;13.47;100.00
59729;BME280;45588;51.598;5.618;2022-10-13T12:56:44;101477.50;;;13.45;100.00
59729;BME280;45588;51.598;5.618;2022-10-13T12:59:18;101480.03;;;13.40;100.00
59729;BME280;45588;51.598;5.618;2022-10-13T13:01:51;101486.94;;;13.36;100.00
59729;BME280;45588;51.598;5.618;2022-10-13T13:06:54;101470.06;;;13.24;100.00
59729;BME280;45588;51.598;5.618;2022-10-13T13:09:23;101471.75;;;13.21;100.00
59729;BME280;45588;51.598;5.618;2022-10-13T13:14:37;101469.28;;;13.28;100.00
59729;BME280;45588;51.598;5.618;2022-10-13T13:19:42;101472.94;;;13.34;100.00
59729;BME280;45588;51.598;5.618;2022-10-13T13:22:08;101463.34;;;13.35;100.00
59729;BME280;45588;51.598;5.618;2022-10-13T13:24:33;101459.81;;;13.33;100.00
59729;BME280;45588;51.598;5.618;2022-10-13T13:27:17;101460.66;;;13.32;100.00
59729;BME280;45588;51.598;5.618;2022-10-13T13:29:43;101463.50;;;13.41;100.00
59729;BME280;45588;51.598;5.618;2022-10-13T13:32:14;101460.81;;;13.39;100.00
59729;BME280;45588;51.598;5.618;2022-10-13T13:34:39;101450.53;;;13.47;100.00
59729;BME280;45588;51.598;5.618;2022-10-13T13:37:10;101456.69;;;13.49;100.00
59729;BME280;45588;51.598;5.618;2022-10-13T13:39:36;101460.22;;;13.51;100.00
59729;BME280;45588;51.598;5.618;2022-10-13T13:42:01;101452.31;;;13.48;100.00
59729;BME280;45588;51.598;5.618;2022-10-13T13:44:26;101451.38;;;13.46;100.00
59729;BME280;45588;51.598;5.618;2022-10-13T13:46:51;101450.50;;;13.46;100.00
59729;BME280;45588;51.598;5.618;2022-10-13T13:49:17;101454.00;;;13.48;100.00
59729;BME280;45588;51.598;5.618;2022-10-13T13:51:42;101447.06;;;13.48;100.00
59729;BME280;45588;51.598;5.618;2022-10-13T13:54:07;101443.59;;;13.49;100.00
59729;BME280;45588;51.598;5.618;2022-10-13T13:56:32;101449.59;;;13.45;100.00
59729;BME280;45588;51.598;5.618;2022-10-13T13:58:58;101444.31;;;13.42;100.00
59729;BME280;45588;51.598;5.618;2022-10-13T14:01:23;101445.00;;;13.33;100.00
59729;BME280;45588;51.598;5.618;2022-10-13T14:03:49;101448.47;;;13.32;100.00
59729;BME280;45588;51.598;5.618;2022-10-13T14:06:16;101438.81;;;13.28;100.00
59729;BME280;45588;51.598;5.618;2022-10-13T14:08:42;101442.28;;;13.29;100.00
59729;BME280;45588;51.598;5.618;2022-10-13T14:11:07;101442.28;;;13.29;100.00
59729;BME280;45588;51.598;5.618;2022-10-13T14:13:33;101438.00;;;13.32;100.00